sensor_id;sensor_type;location;lat;lon;timestamp;temperature;humidity
11229;DHT22;5671;47.936;8.716;2022-08-19T00:04:20;16.50;86.10
11229;DHT22;5671;47.936;8.716;2022-08-19T00:06:54;16.50;86.40
11229;DHT22;5671;47.936;8.716;2022-08-19T00:16:32;16.50;86.90
11229;DHT22;5671;47.936;8.716;2022-08-19T00:56:40;16.40;87.20
11229;DHT22;5671;47.936;8.716;2022-08-19T00:59:09;16.40;86.40
11229;DHT22;5671;47.936;8.716;2022-08-19T01:01:46;16.40;86.00
11229;DHT22;5671;47.936;8.716;2022-08-19T01:04:35;16.40;85.90
11229;DHT22;5671;47.936;8.716;2022-08-19T01:07:09;16.40;85.60
11229;DHT22;5671;47.936;8.716;2022-08-19T01:12:59;16.30;86.50
11229;DHT22;5671;47.936;8.716;2022-08-19T01:15:30;16.30;86.10
11229;DHT22;5671;47.936;8.716;2022-08-19T01:18:00;16.30;86.20
11229;DHT22;5671;47.936;8.716;2022-08-19T01:20:28;16.30;85.70
11229;DHT22;5671;47.936;8.716;2022-08-19T01:22:57;16.30;85.50
11229;DHT22;5671;47.936;8.716;2022-08-19T01:25:28;16.30;85.70
11229;DHT22;5671;47.936;8.716;2022-08-19T01:27:56;16.30;85.60
11229;DHT22;5671;47.936;8.716;2022-08-19T01:30:27;16.30;85.70
11229;DHT22;5671;47.936;8.716;2022-08-19T01:32:54;16.30;85.60
11229;DHT22;5671;47.936;8.716;2022-08-19T01:35:23;16.30;85.00
11229;DHT22;5671;47.936;8.716;2022-08-19T01:37:53;16.30;85.00
11229;DHT22;5671;47.936;8.716;2022-08-19T01:40:26;16.20;85.70
11229;DHT22;5671;47.936;8.716;2022-08-19T01:46:15;16.20;84.90
11229;DHT22;5671;47.936;8.716;2022-08-19T01:48:45;16.20;85.40
11229;DHT22;5671;47.936;8.716;2022-08-19T01:51:13;16.20;85.00
11229;DHT22;5671;47.936;8.716;2022-08-19T01:53:47;16.10;85.40
11229;DHT22;5671;47.936;8.716;2022-08-19T01:56:47;16.10;85.40
11229;DHT22;5671;47.936;8.716;2022-08-19T01:59:57;16.10;85.40
11229;DHT22;5671;47.936;8.716;2022-08-19T02:02:38;16.20;85.70
11229;DHT22;5671;47.936;8.716;2022-08-19T02:05:13;16.20;86.90
11229;DHT22;5671;47.936;8.716;2022-08-19T02:10:40;16.10;86.80
11229;DHT22;5671;47.936;8.716;2022-08-19T02:13:09;16.10;85.80
11229;DHT22;5671;47.936;8.716;2022-08-19T02:15:37;16.20;86.30
11229;DHT22;5671;47.936;8.716;2022-08-19T02:18:05;16.20;86.90
11229;DHT22;5671;47.936;8.716;2022-08-19T02:20:33;16.20;86.60
11229;DHT22;5671;47.936;8.716;2022-08-19T02:23:01;16.20;86.90
11229;DHT22;5671;47.936;8.716;2022-08-19T02:25:28;16.20;86.50
11229;DHT22;5671;47.936;8.716;2022-08-19T02:27:55;16.10;85.80
11229;DHT22;5671;47.936;8.716;2022-08-19T02:30:23;16.20;85.70
11229;DHT22;5671;47.936;8.716;2022-08-19T02:32:51;16.20;86.50
11229;DHT22;5671;47.936;8.716;2022-08-19T02:35:18;16.20;86.00
11229;DHT22;5671;47.936;8.716;2022-08-19T02:37:45;16.20;85.80
11229;DHT22;5671;47.936;8.716;2022-08-19T02:40:31;16.20;85.50
11229;DHT22;5671;47.936;8.716;2022-08-19T02:42:59;16.20;85.60
11229;DHT22;5671;47.936;8.716;2022-08-19T02:45:31;16.20;87.10
11229;DHT22;5671;47.936;8.716;2022-08-19T02:47:58;16.20;86.10
11229;DHT22;5671;47.936;8.716;2022-08-19T02:50:25;16.20;85.80
11229;DHT22;5671;47.936;8.716;2022-08-19T02:52:52;16.20;86.40
11229;DHT22;5671;47.936;8.716;2022-08-19T02:55:19;16.20;86.70
11229;DHT22;5671;47.936;8.716;2022-08-19T02:57:47;16.20;86.10
11229;DHT22;5671;47.936;8.716;2022-08-19T03:00:14;16.20;86.60
11229;DHT22;5671;47.936;8.716;2022-08-19T03:02:43;16.30;86.10
11229;DHT22;5671;47.936;8.716;2022-08-19T03:05:10;16.30;86.10
11229;DHT22;5671;47.936;8.716;2022-08-19T03:07:37;16.30;85.90
11229;DHT22;5671;47.936;8.716;2022-08-19T03:10:05;16.30;85.90
11229;DHT22;5671;47.936;8.716;2022-08-19T03:12:36;16.20;86.50
11229;DHT22;5671;47.936;8.716;2022-08-19T03:15:04;16.30;86.10
11229;DHT22;5671;47.936;8.716;2022-08-19T03:17:33;16.30;85.60
11229;DHT22;5671;47.936;8.716;2022-08-19T03:20:02;16.30;86.00
11229;DHT22;5671;47.936;8.716;2022-08-19T03:22:29;16.20;86.40
11229;DHT22;5671;47.936;8.716;2022-08-19T03:24:56;16.20;85.90
11229;DHT22;5671;47.936;8.716;2022-08-19T03:27:24;16.30;86.80
11229;DHT22;5671;47.936;8.716;2022-08-19T03:29:51;16.20;86.20
11229;DHT22;5671;47.936;8.716;2022-08-19T03:32:18;16.20;86.50
11229;DHT22;5671;47.936;8.716;2022-08-19T03:34:45;16.20;86.70
11229;DHT22;5671;47.936;8.716;2022-08-19T03:37:13;16.20;86.00
11229;DHT22;5671;47.936;8.716;2022-08-19T03:39:41;16.20;86.60
11229;DHT22;5671;47.936;8.716;2022-08-19T03:42:09;16.20;86.10
11229;DHT22;5671;47.936;8.716;2022-08-19T03:44:36;16.20;86.90
11229;DHT22;5671;47.936;8.716;2022-08-19T03:47:05;16.20;86.10
11229;DHT22;5671;47.936;8.716;2022-08-19T03:49:33;16.20;86.10
11229;DHT22;5671;47.936;8.716;2022-08-19T03:52:01;16.20;86.60
11229;DHT22;5671;47.936;8.716;2022-08-19T03:54:32;16.20;86.30
11229;DHT22;5671;47.936;8.716;2022-08-19T03:56:59;16.20;86.00
11229;DHT22;5671;47.936;8.716;2022-08-19T03:59:41;16.20;86.60
11229;DHT22;5671;47.936;8.716;2022-08-19T04:02:11;16.20;86.50
11229;DHT22;5671;47.936;8.716;2022-08-19T04:04:53;16.20;86.50
11229;DHT22;5671;47.936;8.716;2022-08-19T04:08:04;16.20;86.90
11229;DHT22;5671;47.936;8.716;2022-08-19T04:10:57;16.20;86.80
11229;DHT22;5671;47.936;8.716;2022-08-19T04:13:24;16.20;87.30
11229;DHT22;5671;47.936;8.716;2022-08-19T04:15:51;16.20;87.30
11229;DHT22;5671;47.936;8.716;2022-08-19T04:18:19;16.20;87.20
11229;DHT22;5671;47.936;8.716;2022-08-19T04:20:47;16.20;87.30
11229;DHT22;5671;47.936;8.716;2022-08-19T04:23:14;16.20;87.60
11229;DHT22;5671;47.936;8.716;2022-08-19T04:25:43;16.20;87.70
11229;DHT22;5671;47.936;8.716;2022-08-19T04:28:12;16.20;87.10
11229;DHT22;5671;47.936;8.716;2022-08-19T04:30:42;16.20;87.60
11229;DHT22;5671;47.936;8.716;2022-08-19T04:33:22;16.20;87.70
11229;DHT22;5671;47.936;8.716;2022-08-19T04:36:03;16.20;86.90
11229;DHT22;5671;47.936;8.716;2022-08-19T04:38:30;16.30;86.90
11229;DHT22;5671;47.936;8.716;2022-08-19T04:40:57;16.20;86.80
11229;DHT22;5671;47.936;8.716;2022-08-19T04:43:45;16.30;87.10
11229;DHT22;5671;47.936;8.716;2022-08-19T04:46:33;16.30;86.70
11229;DHT22;5671;47.936;8.716;2022-08-19T04:49:02;16.30;87.00
11229;DHT22;5671;47.936;8.716;2022-08-19T04:58:44;16.30;87.20
11229;DHT22;5671;47.936;8.716;2022-08-19T05:01:54;16.30;87.00
11229;DHT22;5671;47.936;8.716;2022-08-19T05:04:22;16.30;87.50
11229;DHT22;5671;47.936;8.716;2022-08-19T05:07:04;16.30;86.80
11229;DHT22;5671;47.936;8.716;2022-08-19T05:09:31;16.30;86.10
11229;DHT22;5671;47.936;8.716;2022-08-19T05:11:58;16.40;86.30
11229;DHT22;5671;47.936;8.716;2022-08-19T05:14:28;16.40;86.30
11229;DHT22;5671;47.936;8.716;2022-08-19T05:16:56;16.40;87.00
11229;DHT22;5671;47.936;8.716;2022-08-19T05:19:22;16.40;86.80
11229;DHT22;5671;47.936;8.716;2022-08-19T05:22:07;16.40;86.30
11229;DHT22;5671;47.936;8.716;2022-08-19T05:24:51;16.40;86.70
11229;DHT22;5671;47.936;8.716;2022-08-19T05:27:18;16.40;86.70
11229;DHT22;5671;47.936;8.716;2022-08-19T05:29:46;16.40;86.50
11229;DHT22;5671;47.936;8.716;2022-08-19T05:32:13;16.40;86.40
11229;DHT22;5671;47.936;8.716;2022-08-19T05:34:40;16.40;86.20
11229;DHT22;5671;47.936;8.716;2022-08-19T05:37:08;16.40;86.10
11229;DHT22;5671;47.936;8.716;2022-08-19T05:39:37;16.40;86.40
11229;DHT22;5671;47.936;8.716;2022-08-19T05:42:06;16.40;86.30
11229;DHT22;5671;47.936;8.716;2022-08-19T05:44:35;16.40;86.50
11229;DHT22;5671;47.936;8.716;2022-08-19T05:47:06;16.40;86.70
11229;DHT22;5671;47.936;8.716;2022-08-19T05:49:35;16.40;86.70
11229;DHT22;5671;47.936;8.716;2022-08-19T05:52:03;16.40;85.90
11229;DHT22;5671;47.936;8.716;2022-08-19T05:54:31;16.40;85.90
11229;DHT22;5671;47.936;8.716;2022-08-19T05:56:59;16.40;86.20
11229;DHT22;5671;47.936;8.716;2022-08-19T05:59:30;16.40;86.40
11229;DHT22;5671;47.936;8.716;2022-08-19T06:01:57;16.40;85.90
11229;DHT22;5671;47.936;8.716;2022-08-19T06:04:27;16.40;86.70
11229;DHT22;5671;47.936;8.716;2022-08-19T06:06:54;16.40;86.50
11229;DHT22;5671;47.936;8.716;2022-08-19T06:09:22;16.40;86.60
11229;DHT22;5671;47.936;8.716;2022-08-19T06:11:50;16.40;86.10
11229;DHT22;5671;47.936;8.716;2022-08-19T06:14:21;16.40;85.30
11229;DHT22;5671;47.936;8.716;2022-08-19T06:16:48;16.40;86.50
11229;DHT22;5671;47.936;8.716;2022-08-19T06:19:21;16.40;86.00
11229;DHT22;5671;47.936;8.716;2022-08-19T06:21:52;16.40;85.90
11229;DHT22;5671;47.936;8.716;2022-08-19T06:24:24;16.40;86.30
11229;DHT22;5671;47.936;8.716;2022-08-19T06:26:53;16.40;86.00
11229;DHT22;5671;47.936;8.716;2022-08-19T06:29:29;16.40;86.00
11229;DHT22;5671;47.936;8.716;2022-08-19T06:31:59;16.40;85.20
11229;DHT22;5671;47.936;8.716;2022-08-19T06:34:29;16.40;85.80
11229;DHT22;5671;47.936;8.716;2022-08-19T06:37:00;16.40;86.10
11229;DHT22;5671;47.936;8.716;2022-08-19T06:39:29;16.40;86.00
11229;DHT22;5671;47.936;8.716;2022-08-19T06:42:02;16.40;86.10
11229;DHT22;5671;47.936;8.716;2022-08-19T06:44:33;16.40;85.70
11229;DHT22;5671;47.936;8.716;2022-08-19T06:47:02;16.40;86.20
11229;DHT22;5671;47.936;8.716;2022-08-19T06:49:30;16.40;86.20
11229;DHT22;5671;47.936;8.716;2022-08-19T06:51:59;16.50;86.60
11229;DHT22;5671;47.936;8.716;2022-08-19T06:54:29;16.50;86.30
11229;DHT22;5671;47.936;8.716;2022-08-19T06:56:56;16.50;85.90
11229;DHT22;5671;47.936;8.716;2022-08-19T06:59:24;16.50;86.00
11229;DHT22;5671;47.936;8.716;2022-08-19T07:01:54;16.50;85.40
11229;DHT22;5671;47.936;8.716;2022-08-19T07:04:24;16.50;85.40
11229;DHT22;5671;47.936;8.716;2022-08-19T07:06:58;16.50;85.30
11229;DHT22;5671;47.936;8.716;2022-08-19T07:09:28;16.50;86.00
11229;DHT22;5671;47.936;8.716;2022-08-19T07:11:56;16.60;85.60
11229;DHT22;5671;47.936;8.716;2022-08-19T07:14:24;16.60;85.70
11229;DHT22;5671;47.936;8.716;2022-08-19T07:16:54;16.60;85.70
11229;DHT22;5671;47.936;8.716;2022-08-19T07:19:23;16.60;86.00
11229;DHT22;5671;47.936;8.716;2022-08-19T07:22:07;16.60;86.30
11229;DHT22;5671;47.936;8.716;2022-08-19T07:24:35;16.60;85.80
11229;DHT22;5671;47.936;8.716;2022-08-19T07:27:04;16.60;86.60
11229;DHT22;5671;47.936;8.716;2022-08-19T07:29:33;16.60;86.30
11229;DHT22;5671;47.936;8.716;2022-08-19T07:32:02;16.60;86.40
11229;DHT22;5671;47.936;8.716;2022-08-19T07:34:31;16.60;85.90
11229;DHT22;5671;47.936;8.716;2022-08-19T07:37:00;16.60;85.60
11229;DHT22;5671;47.936;8.716;2022-08-19T07:39:30;16.60;85.60
11229;DHT22;5671;47.936;8.716;2022-08-19T07:41:59;16.70;85.00
11229;DHT22;5671;47.936;8.716;2022-08-19T07:44:26;16.70;85.00
11229;DHT22;5671;47.936;8.716;2022-08-19T07:46:54;16.70;85.30
11229;DHT22;5671;47.936;8.716;2022-08-19T07:49:23;16.70;85.70
11229;DHT22;5671;47.936;8.716;2022-08-19T07:51:53;16.70;85.20
11229;DHT22;5671;47.936;8.716;2022-08-19T07:54:22;16.70;84.90
11229;DHT22;5671;47.936;8.716;2022-08-19T07:56:58;16.70;85.40
11229;DHT22;5671;47.936;8.716;2022-08-19T07:59:25;16.70;85.80
11229;DHT22;5671;47.936;8.716;2022-08-19T08:01:54;16.80;85.70
11229;DHT22;5671;47.936;8.716;2022-08-19T08:04:21;16.80;85.10
11229;DHT22;5671;47.936;8.716;2022-08-19T08:07:07;16.80;85.50
11229;DHT22;5671;47.936;8.716;2022-08-19T08:09:52;16.80;85.10
11229;DHT22;5671;47.936;8.716;2022-08-19T08:12:23;16.80;85.70
11229;DHT22;5671;47.936;8.716;2022-08-19T08:14:54;16.80;85.40
11229;DHT22;5671;47.936;8.716;2022-08-19T08:17:24;16.80;84.70
11229;DHT22;5671;47.936;8.716;2022-08-19T08:19:52;16.80;85.60
11229;DHT22;5671;47.936;8.716;2022-08-19T08:22:22;16.80;85.70
11229;DHT22;5671;47.936;8.716;2022-08-19T08:25:05;16.80;85.60
11229;DHT22;5671;47.936;8.716;2022-08-19T08:27:36;16.80;84.50
11229;DHT22;5671;47.936;8.716;2022-08-19T08:30:05;16.80;84.10
11229;DHT22;5671;47.936;8.716;2022-08-19T08:32:34;16.80;84.20
11229;DHT22;5671;47.936;8.716;2022-08-19T08:35:05;16.80;84.40
11229;DHT22;5671;47.936;8.716;2022-08-19T08:37:33;16.80;84.60
11229;DHT22;5671;47.936;8.716;2022-08-19T08:40:03;16.80;84.20
11229;DHT22;5671;47.936;8.716;2022-08-19T08:42:36;16.80;83.90
11229;DHT22;5671;47.936;8.716;2022-08-19T08:45:08;16.80;83.80
11229;DHT22;5671;47.936;8.716;2022-08-19T08:47:39;16.80;83.90
11229;DHT22;5671;47.936;8.716;2022-08-19T08:50:12;16.80;84.10
11229;DHT22;5671;47.936;8.716;2022-08-19T08:52:44;16.80;83.60
11229;DHT22;5671;47.936;8.716;2022-08-19T08:55:15;16.80;84.30
11229;DHT22;5671;47.936;8.716;2022-08-19T08:58:03;16.80;85.60
11229;DHT22;5671;47.936;8.716;2022-08-19T09:00:44;16.70;84.30
11229;DHT22;5671;47.936;8.716;2022-08-19T09:03:28;16.70;84.60
11229;DHT22;5671;47.936;8.716;2022-08-19T09:06:00;16.70;84.00
11229;DHT22;5671;47.936;8.716;2022-08-19T09:08:40;16.70;83.30
11229;DHT22;5671;47.936;8.716;2022-08-19T09:11:24;16.70;83.90
11229;DHT22;5671;47.936;8.716;2022-08-19T09:14:07;16.70;83.80
11229;DHT22;5671;47.936;8.716;2022-08-19T09:16:35;16.70;83.50
11229;DHT22;5671;47.936;8.716;2022-08-19T09:19:07;16.70;83.40
11229;DHT22;5671;47.936;8.716;2022-08-19T09:21:43;16.70;83.90
11229;DHT22;5671;47.936;8.716;2022-08-19T09:24:16;16.70;83.70
11229;DHT22;5671;47.936;8.716;2022-08-19T09:26:43;16.70;84.00
11229;DHT22;5671;47.936;8.716;2022-08-19T09:29:13;16.70;83.40
11229;DHT22;5671;47.936;8.716;2022-08-19T09:31:39;16.70;84.10
11229;DHT22;5671;47.936;8.716;2022-08-19T09:34:06;16.70;83.10
11229;DHT22;5671;47.936;8.716;2022-08-19T09:36:34;16.70;83.60
11229;DHT22;5671;47.936;8.716;2022-08-19T09:39:05;16.70;82.90
11229;DHT22;5671;47.936;8.716;2022-08-19T09:41:32;16.70;83.50
11229;DHT22;5671;47.936;8.716;2022-08-19T09:44:01;16.80;83.80
11229;DHT22;5671;47.936;8.716;2022-08-19T09:46:36;16.70;84.30
11229;DHT22;5671;47.936;8.716;2022-08-19T09:49:03;16.70;84.70
11229;DHT22;5671;47.936;8.716;2022-08-19T09:51:32;16.80;84.50
11229;DHT22;5671;47.936;8.716;2022-08-19T09:54:01;16.70;85.10
11229;DHT22;5671;47.936;8.716;2022-08-19T09:56:32;16.80;85.00
11229;DHT22;5671;47.936;8.716;2022-08-19T09:59:06;16.70;84.90
11229;DHT22;5671;47.936;8.716;2022-08-19T10:01:36;16.80;85.20
11229;DHT22;5671;47.936;8.716;2022-08-19T10:04:05;16.80;85.00
11229;DHT22;5671;47.936;8.716;2022-08-19T10:06:41;16.80;85.60
11229;DHT22;5671;47.936;8.716;2022-08-19T10:09:10;16.80;85.50
11229;DHT22;5671;47.936;8.716;2022-08-19T10:11:42;16.80;84.50
11229;DHT22;5671;47.936;8.716;2022-08-19T10:14:15;16.80;84.90
11229;DHT22;5671;47.936;8.716;2022-08-19T10:16:49;16.80;85.20
11229;DHT22;5671;47.936;8.716;2022-08-19T10:19:17;16.80;85.20
11229;DHT22;5671;47.936;8.716;2022-08-19T10:21:46;16.80;85.20
11229;DHT22;5671;47.936;8.716;2022-08-19T10:24:15;16.80;85.10
11229;DHT22;5671;47.936;8.716;2022-08-19T10:26:42;16.80;84.80
11229;DHT22;5671;47.936;8.716;2022-08-19T10:29:36;16.80;84.70
11229;DHT22;5671;47.936;8.716;2022-08-19T13:50:28;17.40;86.40
11229;DHT22;5671;47.936;8.716;2022-08-19T14:13:36;17.70;85.60
11229;DHT22;5671;47.936;8.716;2022-08-19T14:23:10;17.70;85.20
11229;DHT22;5671;47.936;8.716;2022-08-19T15:17:05;17.50;86.70
11229;DHT22;5671;47.936;8.716;2022-08-19T15:26:43;17.60;86.10
11229;DHT22;5671;47.936;8.716;2022-08-19T15:32:42;17.70;85.80
11229;DHT22;5671;47.936;8.716;2022-08-19T15:35:12;17.70;85.60
11229;DHT22;5671;47.936;8.716;2022-08-19T15:37:42;17.70;86.00
11229;DHT22;5671;47.936;8.716;2022-08-19T16:02:06;17.80;85.60
11229;DHT22;5671;47.936;8.716;2022-08-19T16:04:51;17.80;86.10
11229;DHT22;5671;47.936;8.716;2022-08-19T20:18:31;16.20;86.60
11229;DHT22;5671;47.936;8.716;2022-08-19T20:20:59;16.20;86.50
11229;DHT22;5671;47.936;8.716;2022-08-19T20:23:26;16.20;86.80
11229;DHT22;5671;47.936;8.716;2022-08-19T20:29:19;16.10;86.80
11229;DHT22;5671;47.936;8.716;2022-08-19T20:34:58;16.00;86.20
11229;DHT22;5671;47.936;8.716;2022-08-19T20:37:35;15.90;86.10
11229;DHT22;5671;47.936;8.716;2022-08-19T20:40:07;15.90;86.20
11229;DHT22;5671;47.936;8.716;2022-08-19T20:42:57;15.80;86.60
11229;DHT22;5671;47.936;8.716;2022-08-19T20:45:45;15.80;86.90
11229;DHT22;5671;47.936;8.716;2022-08-19T20:48:49;15.70;86.80
11229;DHT22;5671;47.936;8.716;2022-08-19T20:51:19;15.60;86.90
11229;DHT22;5671;47.936;8.716;2022-08-19T20:57:35;15.50;88.00
11229;DHT22;5671;47.936;8.716;2022-08-19T21:03:50;15.40;87.90
11229;DHT22;5671;47.936;8.716;2022-08-19T21:09:35;15.30;88.10
11229;DHT22;5671;47.936;8.716;2022-08-19T21:15:10;15.20;88.10
11229;DHT22;5671;47.936;8.716;2022-08-19T21:17:37;15.10;88.00
11229;DHT22;5671;47.936;8.716;2022-08-19T21:20:05;15.10;88.00
11229;DHT22;5671;47.936;8.716;2022-08-19T21:22:33;15.10;87.80
11229;DHT22;5671;47.936;8.716;2022-08-19T21:35:39;14.90;88.10
11229;DHT22;5671;47.936;8.716;2022-08-19T22:08:51;14.60;88.10
11229;DHT22;5671;47.936;8.716;2022-08-19T22:11:20;14.50;88.20
11229;DHT22;5671;47.936;8.716;2022-08-19T22:13:49;14.50;88.30
11229;DHT22;5671;47.936;8.716;2022-08-19T22:16:21;14.50;88.70
11229;DHT22;5671;47.936;8.716;2022-08-19T22:18:49;14.50;88.80
11229;DHT22;5671;47.936;8.716;2022-08-19T22:21:19;14.50;89.00
11229;DHT22;5671;47.936;8.716;2022-08-19T22:23:57;14.50;88.70
11229;DHT22;5671;47.936;8.716;2022-08-19T22:26:25;14.50;88.80
11229;DHT22;5671;47.936;8.716;2022-08-19T22:28:52;14.50;88.60
11229;DHT22;5671;47.936;8.716;2022-08-19T22:31:19;14.50;88.50
11229;DHT22;5671;47.936;8.716;2022-08-19T22:33:46;14.50;88.50
11229;DHT22;5671;47.936;8.716;2022-08-19T22:36:13;14.50;88.50
11229;DHT22;5671;47.936;8.716;2022-08-19T22:38:42;14.50;88.30
11229;DHT22;5671;47.936;8.716;2022-08-19T22:42:31;14.50;88.30
11229;DHT22;5671;47.936;8.716;2022-08-19T22:44:41;14.50;88.00
11229;DHT22;5671;47.936;8.716;2022-08-19T22:47:08;14.50;88.40
11229;DHT22;5671;47.936;8.716;2022-08-19T22:49:39;14.40;88.10
11229;DHT22;5671;47.936;8.716;2022-08-19T22:56:10;14.40;87.30
11229;DHT22;5671;47.936;8.716;2022-08-19T22:59:16;14.40;87.50
11229;DHT22;5671;47.936;8.716;2022-08-19T23:02:08;14.30;87.30
11229;DHT22;5671;47.936;8.716;2022-08-19T23:08:00;14.30;87.70
11229;DHT22;5671;47.936;8.716;2022-08-19T23:10:27;14.20;88.10
11229;DHT22;5671;47.936;8.716;2022-08-19T23:12:56;14.20;88.50
11229;DHT22;5671;47.936;8.716;2022-08-19T23:15:27;14.20;88.90
11229;DHT22;5671;47.936;8.716;2022-08-19T23:17:57;14.20;88.60
11229;DHT22;5671;47.936;8.716;2022-08-19T23:20:25;14.20;88.60
11229;DHT22;5671;47.936;8.716;2022-08-19T23:22:55;14.20;88.50
11229;DHT22;5671;47.936;8.716;2022-08-19T23:25:36;14.20;88.90
11229;DHT22;5671;47.936;8.716;2022-08-19T23:28:25;14.20;88.80
11229;DHT22;5671;47.936;8.716;2022-08-19T23:31:11;14.20;89.30
11229;DHT22;5671;47.936;8.716;2022-08-19T23:33:41;14.20;89.40
11229;DHT22;5671;47.936;8.716;2022-08-19T23:36:10;14.20;89.10
11229;DHT22;5671;47.936;8.716;2022-08-19T23:38:39;14.20;89.20
